Time;durP1;ratioP1;P1;durP2;ratioP2;P2;SDS_P1;SDS_P2;PMS_P1;PMS_P2;Temp;Humidity;BMP_temperature;BMP_pressure;BME280_temperature;BME280_humidity;BME280_pressure;Samples;Min_cycle;Max_cycle;Signal;HPM_P1;HPM_P2
2023/10/17 00:02:08;;;;;;;3.08;1.48;;;;;;;-145.63;50.20;39405.59;5044537;28;20044;-66
2023/10/17 00:04:35;;;;;;;2.60;1.42;;;;;;;-145.63;49.97;39388.00;5025651;28;20085;-66
2023/10/17 00:07:02;;;;;;;2.90;1.15;;;;;;;-145.63;49.82;39401.69;5041858;28;20025;-66
2023/10/17 00:09:30;;;;;;;3.25;1.50;;;;;;;-145.63;49.60;39395.84;5045198;28;20079;-66
2023/10/17 00:12:09;;;;;;;2.85;1.30;;;;;;;-145.63;49.28;39384.09;5045153;28;20495;-65
2023/10/17 00:14:35;;;;;;;2.00;1.45;;;;;;;-145.63;49.02;39388.00;5044634;28;20504;-66
2023/10/17 00:17:04;;;;;;;3.10;1.35;;;;;;;-145.63;50.07;39389.97;5045070;28;20359;-65
2023/10/17 00:19:33;;;;;;;2.00;1.40;;;;;;;-145.63;49.36;39384.09;5045036;28;20179;-67
2023/10/17 00:21:59;;;;;;;2.85;1.48;;;;;;;-145.63;49.55;39374.31;5044774;28;20084;-65
2023/10/17 00:24:25;;;;;;;2.38;1.55;;;;;;;-145.63;49.71;39382.13;5052085;28;20032;-65
2023/10/17 00:26:51;;;;;;;2.75;1.30;;;;;;;-145.63;50.45;39380.19;5057729;28;20261;-66
2023/10/17 00:29:17;;;;;;;7.07;1.50;;;;;;;-145.63;50.50;39255.00;5046941;28;20036;-66
2023/10/17 00:31:46;;;;;;;3.33;1.40;;;;;;;-145.63;50.27;39225.69;5038085;28;20193;-66
2023/10/17 00:34:23;;;;;;;4.55;1.33;;;;;;;-145.63;49.22;39372.34;5033281;28;20353;-66
2023/10/17 00:36:49;;;;;;;4.20;1.50;;;;;;;-145.63;49.39;39389.97;5043754;28;20071;-65
2023/10/17 00:39:23;;;;;;;1.52;1.20;;;;;;;-145.63;49.59;39388.00;5052667;28;20048;-66
2023/10/17 00:41:52;;;;;;;2.35;1.25;;;;;;;-145.63;49.34;39384.09;5044668;28;20128;-66
2023/10/17 00:44:29;;;;;;;3.50;1.40;;;;;;;-145.63;50.40;39368.44;5044701;28;20029;-66
2023/10/17 00:46:56;;;;;;;3.50;1.30;;;;;;;-145.63;48.98;39374.31;5043655;28;20298;-66
2023/10/17 00:49:25;;;;;;;3.08;1.40;;;;;;;-145.63;49.06;39403.66;5044415;28;20033;-65
2023/10/17 00:51:55;;;;;;;3.38;1.60;;;;;;;-145.63;49.96;39399.75;5044325;28;20033;-66
2023/10/17 00:54:26;;;;;;;2.20;1.50;;;;;;;-145.63;49.44;39382.13;5044348;28;20329;-65
2023/10/17 00:57:00;;;;;;;3.60;1.58;;;;;;;-145.63;49.52;39368.44;5058276;28;20037;-66
2023/10/17 00:59:32;;;;;;;2.58;1.30;;;;;;;-145.63;48.54;39407.56;5044069;28;20033;-65
2023/10/17 01:02:08;;;;;;;2.65;1.45;;;;;;;-145.63;48.99;39372.34;5044283;28;20057;-65
2023/10/17 01:04:40;;;;;;;2.95;1.63;;;;;;;-145.63;48.93;39384.09;5044544;28;20025;-66
2023/10/17 01:07:06;;;;;;;3.08;1.58;;;;;;;-145.63;49.24;39380.19;5043187;28;20056;-65
2023/10/17 01:09:34;;;;;;;2.97;1.40;;;;;;;-145.63;49.32;39380.19;5043846;28;20226;-66
2023/10/17 01:12:09;;;;;;;3.05;1.48;;;;;;;-145.63;48.71;39399.75;5044243;28;20023;-65
2023/10/17 01:14:35;;;;;;;1.92;1.20;;;;;;;-145.63;48.25;39378.22;5044248;28;20032;-66
2023/10/17 01:17:08;;;;;;;3.30;1.40;;;;;;;-145.63;49.53;39378.22;5044192;28;20029;-65
2023/10/17 01:19:35;;;;;;;5.63;1.60;;;;;;;-145.63;49.04;39407.56;5044028;28;20234;-66
2023/10/17 01:22:03;;;;;;;2.63;1.70;;;;;;;-145.63;48.63;39376.28;5043809;28;20025;-66
2023/10/17 01:24:29;;;;;;;2.58;1.63;;;;;;;-145.63;48.17;39389.97;5043825;28;20101;-66
2023/10/17 01:26:55;;;;;;;2.38;1.50;;;;;;;-145.63;48.99;39411.47;5044141;28;20189;-65
2023/10/17 01:29:21;;;;;;;4.32;1.38;;;;;;;-145.63;48.48;39352.81;5043469;28;20026;-65
2023/10/17 01:31:54;;;;;;;3.47;1.60;;;;;;;-145.63;49.08;39380.19;5043728;28;20147;-66
2023/10/17 01:34:21;;;;;;;5.15;1.90;;;;;;;-145.63;49.06;39376.28;5043645;28;20033;-65
2023/10/17 01:36:46;;;;;;;4.00;1.75;;;;;;;-145.63;48.61;39384.09;5043015;28;20154;-65
2023/10/17 01:39:13;;;;;;;2.60;1.77;;;;;;;-145.63;49.55;39423.22;5043408;28;20309;-64
2023/10/17 01:41:42;;;;;;;4.05;1.90;;;;;;;-145.63;49.43;39376.28;5043645;28;20040;-65
2023/10/17 01:44:09;;;;;;;3.58;2.08;;;;;;;-145.63;48.98;39382.13;5043651;28;20087;-66
2023/10/17 01:46:37;;;;;;;5.82;2.13;;;;;;;-145.63;49.38;39376.28;5043018;28;20071;-65
2023/10/17 01:49:10;;;;;;;4.95;2.05;;;;;;;-145.63;48.94;39388.00;5043515;28;20045;-65
2023/10/17 01:51:36;;;;;;;4.25;2.47;;;;;;;-145.63;48.58;39391.91;5042578;28;20324;-65
2023/10/17 01:54:08;;;;;;;5.07;2.42;;;;;;;-145.63;48.76;39393.88;5043580;28;20029;-65
2023/10/17 01:56:38;;;;;;;3.58;2.22;;;;;;;-145.63;49.29;39378.22;5051813;28;20092;-66
2023/10/17 01:59:12;;;;;;;5.45;2.83;;;;;;;-145.63;49.31;39417.34;5047610;28;20096;-66
2023/10/17 02:01:40;;;;;;;5.85;2.53;;;;;;;-145.63;49.01;39403.66;5043093;28;20255;-66
2023/10/17 02:04:12;;;;;;;4.53;2.40;;;;;;;-145.63;48.57;39380.19;5042036;28;20052;-66
2023/10/17 02:06:39;;;;;;;6.25;2.80;;;;;;;-145.63;48.87;39399.75;5043286;28;20037;-66
2023/10/17 02:10:07;;;;;;;3.28;2.30;;;;;;;-145.63;49.11;39403.66;5043460;28;20021;-66
2023/10/17 02:12:00;;;;;;;8.60;2.45;;;;;;;-145.63;50.07;39388.00;5035847;28;20049;-66
2023/10/17 02:14:26;;;;;;;3.28;2.78;;;;;;;-145.63;50.35;39368.44;5043177;28;20333;-66
2023/10/17 02:16:55;;;;;;;4.97;3.00;;;;;;;-145.63;50.03;39403.66;5043068;28;20044;-64
2023/10/17 02:19:25;;;;;;;4.97;3.10;;;;;;;-145.63;50.45;39350.84;5042718;28;20025;-64
2023/10/17 02:22:16;;;;;;;4.65;2.90;;;;;;;-145.63;49.97;39388.00;5041501;28;20026;-64
2023/10/17 02:24:41;;;;;;;5.22;2.90;;;;;;;-145.63;49.88;39380.19;5042812;28;20213;-65
2023/10/17 02:27:09;;;;;;;5.35;3.03;;;;;;;-145.63;50.43;39384.09;5043028;28;20025;-64
2023/10/17 02:29:44;;;;;;;4.40;2.70;;;;;;;-145.63;49.97;39403.66;5042695;28;20045;-65
2023/10/17 02:32:13;;;;;;;4.20;2.67;;;;;;;-145.63;50.23;39411.47;5026953;28;20041;-65
2023/10/17 02:34:40;;;;;;;4.85;3.20;;;;;;;-145.63;50.56;39407.56;5033538;28;20245;-66
2023/10/17 02:37:11;;;;;;;5.28;3.00;;;;;;;-145.63;50.15;39391.91;5042859;28;20096;-66
2023/10/17 02:39:38;;;;;;;7.37;3.07;;;;;;;-145.63;49.63;39423.22;5042718;28;20033;-66
2023/10/17 02:42:08;;;;;;;4.18;2.72;;;;;;;-145.63;50.42;39372.34;5042836;28;20400;-66
2023/10/17 02:44:39;;;;;;;3.85;2.97;;;;;;;-145.63;49.95;39388.00;5042862;28;20025;-66
2023/10/17 02:47:12;;;;;;;;;;;;;;;-145.63;50.78;39372.34;5043555;28;20032;-66
2023/10/17 02:49:38;;;;;;;5.63;3.03;;;;;;;-145.63;50.32;39384.09;5042602;28;19928;-66
2023/10/17 02:52:05;;;;;;;4.72;2.90;;;;;;;-145.63;50.48;39378.22;5042645;28;20049;-66
2023/10/17 02:54:43;;;;;;;5.53;2.92;;;;;;;-145.63;50.98;39386.06;5042498;28;20029;-66
2023/10/17 02:57:09;;;;;;;5.22;2.90;;;;;;;-145.63;50.21;39386.06;5042609;28;20032;-66
2023/10/17 02:59:35;;;;;;;5.90;2.80;;;;;;;-145.63;50.46;39364.53;5042496;28;20033;-66
2023/10/17 03:02:05;;;;;;;5.68;3.03;;;;;;;-145.63;50.37;39366.50;5041405;28;20033;-66
2023/10/17 03:04:31;;;;;;;4.55;2.80;;;;;;;-145.63;50.79;39368.44;5042602;28;20025;-66
2023/10/17 03:06:59;;;;;;;4.75;3.03;;;;;;;-145.63;51.06;39358.66;5042501;28;20032;-66
2023/10/17 03:14:39;;;;;;;3.08;2.58;;;;;;;-145.63;50.53;39389.97;5046488;28;20029;-65
2023/10/17 03:17:05;;;;;;;5.85;3.15;;;;;;;-145.63;50.72;39384.09;5046313;28;20033;-66
2023/10/17 03:19:33;;;;;;;7.88;2.90;;;;;;;-145.63;50.74;39423.22;5045976;28;20093;-66
2023/10/17 03:22:16;;;;;;;6.25;3.10;;;;;;;-145.63;51.02;39417.34;5045421;28;20310;-66
2023/10/17 03:24:43;;;;;;;4.28;2.50;;;;;;;-145.63;50.34;39395.84;5038820;28;20085;-66
2023/10/17 03:27:11;;;;;;;4.68;2.90;;;;;;;-145.63;50.78;39370.41;5045066;28;20096;-67
2023/10/17 03:29:42;;;;;;;3.40;2.50;;;;;;;-145.63;50.09;39427.13;5045928;28;20040;-65
2023/10/17 03:32:11;;;;;;;4.30;2.47;;;;;;;-145.63;50.40;39391.91;5046123;28;20029;-65
2023/10/17 03:34:44;;;;;;;6.75;2.80;;;;;;;-145.63;49.89;39395.84;5046194;28;20179;-65
2023/10/17 03:39:53;;;;;;;3.83;2.50;;;;;;;-145.63;50.34;39397.78;5045936;28;20091;-65
2023/10/17 03:45:17;;;;;;;4.30;2.65;;;;;;;-145.63;50.57;39464.28;5034001;28;20029;-65
2023/10/17 03:47:49;;;;;;;5.18;2.67;;;;;;;-145.63;50.74;39456.47;5045500;28;20048;-66
2023/10/17 03:50:42;;;;;;;3.38;2.30;;;;;;;-145.63;50.48;39382.13;5045431;28;20379;-66
2023/10/17 03:53:14;;;;;;;5.63;3.30;;;;;;;-145.63;50.90;39407.56;5040212;28;20099;-65
2023/10/17 03:55:42;;;;;;;3.28;2.47;;;;;;;-145.63;50.22;39391.91;5045532;28;20170;-65
2023/10/17 04:00:52;;;;;;;4.13;2.47;;;;;;;-145.63;50.35;39388.00;5045171;28;20053;-66
2023/10/17 04:03:30;;;;;;;4.80;2.83;;;;;;;-145.63;50.55;39431.03;5045130;28;20029;-65
2023/10/17 04:08:49;;;;;;;5.30;3.17;;;;;;;-145.63;50.10;39421.25;5045240;28;20063;-65
2023/10/17 04:11:18;;;;;;;;;;;;;;;-145.63;50.99;39388.00;5045719;28;20329;-66
2023/10/17 04:13:52;;;;;;;4.32;2.60;;;;;;;-145.63;51.31;39360.63;5045201;28;19905;-66
2023/10/17 04:16:34;;;;;;;4.95;2.72;;;;;;;-145.63;51.20;39391.91;5044438;28;20029;-65
2023/10/17 04:19:16;;;;;;;5.88;3.03;;;;;;;-145.63;51.33;39415.38;5045164;28;20071;-66
2023/10/17 04:24:39;;;;;;;4.07;2.42;;;;;;;-145.63;51.06;39370.41;5026210;28;20119;-65
2023/10/17 04:29:58;;;;;;;4.95;2.65;;;;;;;-145.63;51.35;39413.44;5044825;28;20088;-65
2023/10/17 04:32:28;;;;;;;4.38;2.70;;;;;;;-145.63;51.50;39374.31;5044716;28;20037;-66
2023/10/17 04:34:55;;;;;;;3.97;2.55;;;;;;;-145.63;51.30;39389.97;5044426;28;20036;-66
2023/10/17 04:37:31;;;;;;;4.90;2.30;;;;;;;-145.63;51.75;39391.91;5044632;28;20037;-65
2023/10/17 04:39:57;;;;;;;4.03;2.50;;;;;;;-145.63;51.56;39374.31;5044820;28;20027;-65
2023/10/17 04:42:47;;;;;;;4.78;2.83;;;;;;;-145.63;51.36;39352.81;5044411;28;20029;-66
2023/10/17 04:45:14;;;;;;;4.60;2.63;;;;;;;-145.63;51.62;39407.56;5044403;28;20034;-67
2023/10/17 04:47:43;;;;;;;3.38;2.42;;;;;;;-145.63;51.42;39403.66;5044511;28;20313;-66
2023/10/17 04:50:12;;;;;;;5.57;2.72;;;;;;;-145.63;51.41;39378.22;5044138;28;20033;-65
2023/10/17 04:52:44;;;;;;;7.00;2.50;;;;;;;-145.63;51.48;39399.75;5043945;28;20060;-65
2023/10/17 04:55:30;;;;;;;4.43;2.38;;;;;;;-145.63;51.54;39421.25;5043939;28;20034;-66
2023/10/17 04:58:03;;;;;;;3.80;2.22;;;;;;;-145.63;51.66;39362.59;5043499;28;20056;-66
2023/10/17 05:01:34;;;;;;;5.90;2.72;;;;;;;-145.63;51.75;39378.22;5043734;28;20101;-65
2023/10/17 05:04:02;;;;;;;4.35;2.03;;;;;;;-145.63;51.40;39358.66;5039724;28;20095;-67
2023/10/17 06:17:22;;;;;;;8.48;5.47;;;;;;;-145.63;51.85;39337.16;5042777;28;20044;-64
2023/10/17 06:19:49;;;;;;;8.95;3.53;;;;;;;-145.63;52.32;39393.88;5042653;28;20029;-64
2023/10/17 06:30:28;;;;;;;2.65;1.80;;;;;;;-145.63;51.25;39339.13;5022935;28;20030;-64
2023/10/17 06:35:31;;;;;;;4.47;2.45;;;;;;;-145.63;51.25;39337.16;5042507;28;20216;-63
2023/10/17 06:37:59;;;;;;;4.10;2.45;;;;;;;-145.63;51.46;39407.56;5042515;28;20108;-63
2023/10/17 06:40:32;;;;;;;7.63;5.03;;;;;;;-145.63;51.35;39380.19;5042356;28;20221;-63
2023/10/17 06:43:06;;;;;;;2.95;2.42;;;;;;;-145.63;50.83;39325.41;5042630;28;20028;-64
2023/10/17 06:45:36;;;;;;;2.65;1.60;;;;;;;-145.63;50.84;39350.84;5043147;28;20026;-64
2023/10/17 06:48:08;;;;;;;5.03;2.10;;;;;;;-145.63;50.95;39317.59;5046321;28;20048;-63
2023/10/17 06:51:29;;;;;;;6.60;1.75;;;;;;;-145.63;51.34;39376.28;5045174;28;20029;-64
2023/10/17 06:53:27;;;;;;;4.50;1.67;;;;;;;-145.63;51.02;39325.41;5041253;28;20037;-63
2023/10/17 06:55:58;;;;;;;5.88;2.00;;;;;;;-145.63;51.60;39333.25;5046489;28;20095;-63
2023/10/17 06:58:27;;;;;;;2.40;1.83;;;;;;;-145.63;50.72;39358.66;5046565;28;20032;-64
2023/10/17 07:00:53;;;;;;;3.85;2.03;;;;;;;-145.63;51.23;39384.09;5046150;28;20048;-63
2023/10/17 07:03:25;;;;;;;4.38;2.13;;;;;;;-145.63;51.82;39341.06;5045927;28;20026;-63
2023/10/17 07:06:16;;;;;;;5.43;2.00;;;;;;;-145.63;51.17;39358.66;5042981;28;20056;-63
2023/10/17 07:08:46;;;;;;;6.18;1.90;;;;;;;-145.63;50.71;39325.41;5044526;28;20034;-63
2023/10/17 07:13:54;;;;;;;;;;;;;;;-145.63;50.88;39372.34;5045183;28;20017;-63
2023/10/17 07:16:32;;;;;;;2.92;1.80;;;;;;;-145.63;50.43;39360.63;5042859;28;19908;-63
2023/10/17 07:24:36;;;;;;;2.80;1.52;;;;;;;-145.63;50.19;39364.53;5044619;28;20043;-64
2023/10/17 07:27:11;;;;;;;7.57;2.10;;;;;;;-145.63;50.32;39362.59;5039902;28;20052;-63
2023/10/17 07:29:37;;;;;;;4.97;1.50;;;;;;;-145.63;49.39;39335.19;5045524;28;20225;-63
2023/10/17 07:32:15;;;;;;;2.10;1.52;;;;;;;-145.63;49.69;39360.63;5044391;28;20033;-63
2023/10/17 07:34:43;;;;;;;7.40;2.00;;;;;;;-145.63;49.43;39337.16;5046028;28;20026;-63
2023/10/17 07:37:25;;;;;;;4.22;1.73;;;;;;;-145.63;49.55;39356.72;5044268;28;20036;-64
2023/10/17 07:40:42;;;;;;;4.20;2.00;;;;;;;-145.63;50.80;39380.19;5044694;28;20051;-63
2023/10/17 07:42:45;;;;;;;6.95;2.30;;;;;;;-145.63;50.21;39368.44;5031903;28;20100;-63
2023/10/17 07:45:14;;;;;;;3.22;1.85;;;;;;;-145.63;50.47;39370.41;5045351;28;20254;-66
2023/10/17 07:47:51;;;;;;;7.30;1.75;;;;;;;-145.63;50.19;39374.31;5045425;28;20025;-65
2023/10/17 07:50:17;;;;;;;5.35;1.90;;;;;;;-145.63;50.16;39407.56;5043024;28;20059;-63
2023/10/17 07:52:59;;;;;;;2.25;1.67;;;;;;;-145.63;50.53;39395.84;5045645;28;20055;-65
2023/10/17 07:55:48;;;;;;;4.90;1.80;;;;;;;-145.63;50.66;39395.84;5043834;28;20037;-63
2023/10/17 07:58:17;;;;;;;6.95;2.25;;;;;;;-145.63;50.58;39350.84;5044903;28;20049;-67
2023/10/17 08:00:44;;;;;;;4.50;1.77;;;;;;;-145.63;50.21;39360.63;5045663;28;20029;-67
2023/10/17 08:03:17;;;;;;;2.00;1.30;;;;;;;-145.63;50.28;39378.22;5045759;28;20271;-64
2023/10/17 08:06:04;;;;;;;3.08;1.40;;;;;;;-145.63;49.53;39354.75;5045144;28;20025;-65
2023/10/17 08:08:34;;;;;;;4.10;1.23;;;;;;;-145.63;49.25;39382.13;5045136;28;20101;-65
2023/10/17 08:11:06;;;;;;;3.72;1.20;;;;;;;-145.63;49.92;39380.19;5040303;28;20036;-66
2023/10/17 08:13:34;;;;;;;3.72;1.52;;;;;;;-145.63;49.45;39368.44;5032652;28;20355;-65
2023/10/17 08:16:07;;;;;;;3.40;2.30;;;;;;;-145.63;49.52;39389.97;5043635;28;20317;-66
2023/10/17 08:18:40;;;;;;;2.55;1.52;;;;;;;-145.63;49.63;39370.41;5042173;28;20017;-68
2023/10/17 08:23:52;;;;;;;1.77;1.50;;;;;;;-145.63;49.57;39382.13;5043382;28;20025;-67
2023/10/17 08:26:18;;;;;;;2.40;1.73;;;;;;;-145.63;49.72;39388.00;5045141;28;20076;-67
2023/10/17 08:36:42;;;;;;;1.58;1.40;;;;;;;-145.63;49.74;39378.22;5039365;28;20359;-69
2023/10/17 08:40:29;;;;;;;1.70;1.60;;;;;;;-145.63;49.72;39362.59;5043934;28;20101;-69
2023/10/17 08:42:25;;;;;;;4.75;1.50;;;;;;;-145.63;49.59;39116.16;5032472;28;20072;-68
2023/10/17 08:44:53;;;;;;;3.08;1.45;;;;;;;-145.63;49.80;39278.47;5044058;28;20025;-69
2023/10/17 08:47:19;;;;;;;4.45;1.40;;;;;;;-145.63;50.11;39321.50;5044697;28;20101;-68
2023/10/17 08:49:48;;;;;;;4.07;1.55;;;;;;;-145.63;50.69;39346.94;5044562;28;20029;-69
2023/10/17 08:52:25;;;;;;;2.78;1.40;;;;;;;-145.63;50.59;39331.28;5034281;28;20034;-68
2023/10/17 08:54:53;;;;;;;3.67;1.23;;;;;;;-145.63;50.97;39364.53;5044645;28;20031;-68
2023/10/17 08:57:20;;;;;;;5.25;1.58;;;;;;;-145.63;50.80;39311.72;5044495;28;20057;-69
2023/10/17 09:02:43;;;;;;;4.30;1.40;;;;;;;-145.63;50.55;39331.28;5044371;28;20033;-69
2023/10/17 09:05:18;;;;;;;4.32;1.45;;;;;;;-145.63;49.86;39346.94;5044186;28;20048;-68
2023/10/17 09:07:48;;;;;;;2.13;1.23;;;;;;;-145.63;49.19;39348.88;5043420;28;20029;-69
2023/10/17 09:10:28;;;;;;;1.50;1.00;;;;;;;-145.63;48.62;39344.97;5044385;28;20037;-69
2023/10/17 09:15:56;;;;;;;5.43;1.52;;;;;;;-145.63;48.87;39305.88;5043701;28;20029;-69
2023/10/17 09:18:27;;;;;;;1.27;1.10;;;;;;;-145.63;48.22;39335.19;5043089;28;20104;-69
2023/10/17 09:20:57;;;;;;;1.75;1.38;;;;;;;-145.63;47.63;39346.94;5043528;28;20039;-70
2023/10/17 09:23:28;;;;;;;2.90;1.15;;;;;;;-145.63;48.20;39395.84;5043653;28;20044;-70
2023/10/17 09:25:58;;;;;;;4.07;1.42;;;;;;;-145.63;47.33;39341.06;5043918;28;20049;-69
2023/10/17 09:28:25;;;;;;;3.78;1.50;;;;;;;-145.63;48.12;39352.81;5043816;28;20101;-70
2023/10/17 09:31:16;;;;;;;2.95;1.50;;;;;;;-145.63;47.36;39364.53;5043320;28;20037;-68
2023/10/17 09:33:48;;;;;;;4.20;1.40;;;;;;;-145.63;47.40;39427.13;5043794;28;20094;-69
2023/10/17 09:36:18;;;;;;;2.40;1.50;;;;;;;-145.63;47.54;38592.09;5024226;28;20091;-69
2023/10/17 09:38:45;;;;;;;3.45;1.45;;;;;;;-145.63;47.76;39380.19;5040621;28;20025;-69
2023/10/17 09:41:19;;;;;;;3.30;1.40;;;;;;;-145.63;47.15;39343.03;5043586;28;20025;-68
2023/10/17 09:43:47;;;;;;;3.92;1.85;;;;;;;-145.63;47.26;39405.59;5043127;28;20071;-69
2023/10/17 09:46:13;;;;;;;4.43;1.73;;;;;;;-145.63;47.45;39344.97;5043838;28;20112;-69
2023/10/17 09:48:45;;;;;;;3.60;1.80;;;;;;;-145.63;47.98;39372.34;5043517;28;20068;-69
2023/10/17 09:51:27;;;;;;;2.83;1.60;;;;;;;-145.63;48.04;39337.16;5040230;28;20049;-70
2023/10/17 09:53:54;;;;;;;;;;;;;;;-145.63;48.28;39337.16;5043821;28;20056;-69
2023/10/17 09:56:34;;;;;;;2.72;1.58;;;;;;;-145.63;48.04;39350.84;5043586;28;19927;-69
2023/10/17 09:59:16;;;;;;;2.28;1.52;;;;;;;-145.63;49.08;39352.81;5043561;28;20080;-69
2023/10/17 10:01:45;;;;;;;4.05;1.38;;;;;;;-145.63;48.62;39321.50;5043010;28;20033;-69
2023/10/17 10:04:12;;;;;;;4.53;2.80;;;;;;;-145.63;49.11;39268.72;5043391;28;20147;-69
2023/10/17 10:06:39;;;;;;;4.00;1.70;;;;;;;-145.63;48.76;39329.34;5043505;28;20330;-69
2023/10/17 10:09:06;;;;;;;2.90;1.73;;;;;;;-145.63;48.67;39337.16;5043359;28;20021;-69
2023/10/17 10:11:58;;;;;;;2.92;1.42;;;;;;;-145.63;49.75;39321.50;5043019;28;20281;-69
2023/10/17 10:14:27;;;;;;;3.28;2.15;;;;;;;-145.63;48.93;39360.63;5042045;28;20037;-69
2023/10/17 10:16:54;;;;;;;3.17;1.77;;;;;;;-145.63;48.74;39335.19;5043062;28;20036;-68
2023/10/17 10:19:24;;;;;;;3.13;1.77;;;;;;;-145.63;48.60;39343.03;5042812;28;20075;-69
2023/10/17 10:21:59;;;;;;;4.68;1.77;;;;;;;-145.63;49.22;39329.34;5041343;28;20052;-70
2023/10/17 10:24:26;;;;;;;3.35;1.67;;;;;;;-145.63;48.18;39348.88;5042881;28;20099;-69
2023/10/17 10:27:10;;;;;;;4.45;1.38;;;;;;;-145.63;47.70;39372.34;5042889;28;20301;-69
2023/10/17 10:29:37;;;;;;;3.67;1.50;;;;;;;-145.63;47.93;39360.63;5042496;28;20104;-69
2023/10/17 10:32:07;;;;;;;3.97;1.60;;;;;;;-145.63;47.13;39364.53;5042511;28;20021;-70
2023/10/17 10:34:39;;;;;;;3.63;1.50;;;;;;;-145.63;47.41;39380.19;5042635;28;20021;-69
2023/10/17 10:37:07;;;;;;;1.92;1.55;;;;;;;-145.63;47.09;39352.81;5042932;28;20032;-67
2023/10/17 10:39:33;;;;;;;3.58;2.35;;;;;;;-145.63;47.03;39307.81;5042584;28;20035;-68
2023/10/17 10:42:06;;;;;;;3.10;1.50;;;;;;;-145.63;46.40;39348.88;5042013;28;20093;-69
2023/10/17 10:44:42;;;;;;;3.67;1.38;;;;;;;-145.63;46.45;39388.00;5042578;28;20049;-69
2023/10/17 10:47:08;;;;;;;2.40;1.63;;;;;;;-145.63;46.17;39358.66;5042857;28;20037;-69
2023/10/17 10:49:34;;;;;;;3.45;2.00;;;;;;;-145.63;46.35;39362.59;5042486;28;20317;-69
2023/10/17 10:52:00;;;;;;;4.47;1.42;;;;;;;-145.63;46.71;39372.34;5042395;28;20069;-68
2023/10/17 10:54:49;;;;;;;2.75;1.50;;;;;;;-145.63;46.65;39401.69;5041556;28;20026;-68
2023/10/17 10:57:17;;;;;;;3.20;1.52;;;;;;;-145.63;46.75;39399.75;5039019;28;20085;-68
2023/10/17 10:59:49;;;;;;;3.60;1.67;;;;;;;-145.63;47.38;39407.56;5042044;28;20221;-68
2023/10/17 11:02:15;;;;;;;5.53;1.95;;;;;;;-145.63;47.83;39389.97;5042862;28;20025;-69
2023/10/17 11:04:40;;;;;;;5.00;2.15;;;;;;;-145.63;47.89;39391.91;5042721;28;20041;-69
2023/10/17 11:07:23;;;;;;;2.78;1.77;;;;;;;-145.63;48.47;39374.31;5041262;28;20021;-69
2023/10/17 11:10:06;;;;;;;4.00;2.40;;;;;;;-145.63;47.93;39399.75;5042070;28;20317;-70
2023/10/17 11:12:33;;;;;;;4.72;2.60;;;;;;;-145.63;48.69;39393.88;5039877;28;20060;-69
2023/10/17 11:15:16;;;;;;;5.60;2.05;;;;;;;-145.63;47.78;39382.13;5042164;28;20032;-69
2023/10/17 11:17:47;;;;;;;4.70;3.20;;;;;;;-145.63;47.69;39413.44;5042108;28;20079;-68
2023/10/17 11:20:14;;;;;;;4.05;1.83;;;;;;;-145.63;47.59;39403.66;5041868;28;20253;-69
2023/10/17 11:22:44;;;;;;;3.08;1.83;;;;;;;-145.63;47.83;39431.03;5042166;28;20045;-69
2023/10/17 11:25:21;;;;;;;3.08;1.88;;;;;;;-145.63;47.51;39356.72;5042235;28;20370;-69
2023/10/17 11:27:56;;;;;;;5.78;2.05;;;;;;;-145.63;47.51;39341.06;5042119;28;20274;-68
2023/10/17 11:30:32;;;;;;;5.70;2.17;;;;;;;-145.63;47.38;39378.22;5036132;28;20039;-70
2023/10/17 11:33:05;;;;;;;4.22;2.53;;;;;;;-145.63;47.48;39325.41;5044287;28;20064;-69
2023/10/17 11:35:32;;;;;;;5.10;2.88;;;;;;;-145.63;47.01;39389.97;5043852;28;20117;-69
2023/10/17 11:37:58;;;;;;;7.00;3.17;;;;;;;-145.63;47.42;39374.31;5045387;28;20025;-69
2023/10/17 11:40:47;;;;;;;5.72;2.22;;;;;;;-145.63;47.50;39403.66;5043063;28;20263;-68
2023/10/17 11:43:14;;;;;;;4.53;2.30;;;;;;;-145.63;46.97;39458.41;5044147;28;20089;-70
2023/10/17 11:45:41;;;;;;;4.65;2.30;;;;;;;-145.63;47.45;39403.66;5044914;28;20344;-69
2023/10/17 11:48:39;;;;;;;3.45;1.80;;;;;;;-145.63;48.25;39384.09;5045487;28;20329;-69
2023/10/17 11:51:07;;;;;;;5.30;2.08;;;;;;;-145.63;48.40;39411.47;5045450;28;20028;-70
2023/10/17 11:53:33;;;;;;;4.57;1.60;;;;;;;-145.63;48.83;39393.88;5044426;28;20044;-70
2023/10/17 11:56:01;;;;;;;3.03;1.73;;;;;;;-145.63;49.88;39442.78;5053522;28;20040;-70
2023/10/17 11:58:30;;;;;;;5.80;1.70;;;;;;;-145.63;49.41;39376.28;5045361;28;20025;-69
2023/10/17 12:00:56;;;;;;;2.67;1.50;;;;;;;-145.63;50.09;39407.56;5044672;28;20033;-68
2023/10/17 12:03:25;;;;;;;4.20;2.08;;;;;;;-145.63;50.05;39419.31;5045136;28;20092;-69
2023/10/17 12:05:51;;;;;;;2.97;1.60;;;;;;;-145.63;50.49;39384.09;5045300;28;20045;-70
2023/10/17 12:08:25;;;;;;;2.67;1.80;;;;;;;-145.63;50.95;39415.38;5045500;28;20083;-71
2023/10/17 12:10:53;;;;;;;7.40;2.55;;;;;;;-145.63;51.52;39388.00;5045359;28;20052;-70
2023/10/17 12:13:19;;;;;;;7.00;1.90;;;;;;;-145.63;51.75;39188.53;5043719;28;20025;-70
2023/10/17 12:15:45;;;;;;;4.53;2.20;;;;;;;-145.63;52.06;39391.91;5045074;28;20169;-70
2023/10/17 12:18:15;;;;;;;4.72;2.15;;;;;;;-145.63;52.73;39370.41;5044749;28;20037;-70
2023/10/17 12:20:41;;;;;;;5.30;2.33;;;;;;;-145.63;52.73;39403.66;5044342;28;20143;-70
2023/10/17 12:23:09;;;;;;;5.03;1.83;;;;;;;-145.63;53.04;39137.69;5025174;28;20037;-70
2023/10/17 12:25:36;;;;;;;2.95;1.80;;;;;;;-145.63;52.75;39393.88;5042750;28;20029;-71
2023/10/17 12:28:06;;;;;;;3.25;1.77;;;;;;;-145.63;52.69;39378.22;5044089;28;20321;-70
2023/10/17 12:30:36;;;;;;;5.15;2.00;;;;;;;-145.63;53.06;39419.31;5043710;28;20026;-70
2023/10/17 12:33:03;;;;;;;3.78;2.17;;;;;;;-145.63;52.66;39474.06;5044407;28;20025;-69
2023/10/17 12:35:29;;;;;;;3.35;2.00;;;;;;;-145.63;53.31;39415.38;5045131;28;20037;-71
2023/10/17 12:37:59;;;;;;;5.35;1.98;;;;;;;-145.63;53.34;39403.66;5044732;28;20075;-68
2023/10/17 12:40:25;;;;;;;4.70;2.33;;;;;;;-145.63;53.24;39411.47;5044736;28;20025;-71
2023/10/17 12:42:52;;;;;;;3.63;2.15;;;;;;;-145.63;52.98;39388.00;5043850;28;20317;-71
2023/10/17 12:45:19;;;;;;;4.13;2.17;;;;;;;-145.63;53.10;39405.59;5044514;28;20026;-71
2023/10/17 12:47:47;;;;;;;3.60;1.80;;;;;;;-145.63;52.77;39460.38;5045694;28;20018;-70
2023/10/17 12:50:23;;;;;;;2.63;1.92;;;;;;;-145.63;52.77;39388.00;5046208;28;20029;-69
2023/10/17 12:52:49;;;;;;;2.05;1.70;;;;;;;-145.63;53.12;39327.38;5033098;28;20050;-69
2023/10/17 12:55:15;;;;;;;3.13;1.67;;;;;;;-145.63;53.11;39395.84;5043923;28;20033;-71
2023/10/17 12:57:41;;;;;;;2.22;1.50;;;;;;;-145.63;53.06;39391.91;5044337;28;20033;-70
2023/10/17 13:00:11;;;;;;;3.95;1.98;;;;;;;-145.63;53.70;39384.09;5043778;28;20197;-69
2023/10/17 13:02:40;;;;;;;3.33;1.80;;;;;;;-145.63;53.36;39366.50;5043987;28;20064;-67
2023/10/17 13:05:10;;;;;;;3.40;1.70;;;;;;;-145.63;54.11;39391.91;5044250;28;20037;-69
2023/10/17 13:07:39;;;;;;;2.47;1.52;;;;;;;-145.63;54.01;39399.75;5044441;28;20025;-69
2023/10/17 13:10:08;;;;;;;2.65;1.70;;;;;;;-145.63;54.30;39421.25;5044088;28;20044;-67
2023/10/17 13:12:35;;;;;;;3.60;1.45;;;;;;;-145.63;54.63;39440.81;5026439;28;20037;-69
2023/10/17 13:15:01;;;;;;;2.15;1.33;;;;;;;-145.63;54.09;39399.75;5041620;28;20373;-68
2023/10/17 13:17:29;;;;;;;2.47;1.60;;;;;;;-145.63;54.30;39419.31;5043611;28;20136;-67
2023/10/17 13:19:57;;;;;;;3.83;1.85;;;;;;;-145.63;54.70;39389.97;5043698;28;20037;-70
2023/10/17 13:22:23;;;;;;;2.47;1.67;;;;;;;-145.63;54.88;39391.91;5042359;28;20220;-68
2023/10/17 13:24:50;;;;;;;5.25;1.67;;;;;;;-145.63;54.48;39380.19;5043966;28;20076;-69
2023/10/17 13:27:16;;;;;;;3.28;1.70;;;;;;;-145.63;54.28;39401.69;5043050;28;20325;-69
2023/10/17 13:29:43;;;;;;;2.38;1.48;;;;;;;-145.63;54.68;39442.78;5043882;28;20448;-68
2023/10/17 13:32:08;;;;;;;2.70;1.60;;;;;;;-145.63;54.61;39395.84;5042784;28;20045;-68
2023/10/17 13:34:37;;;;;;;1.92;1.40;;;;;;;-145.63;54.63;39380.19;5042751;28;20045;-69
2023/10/17 13:37:07;;;;;;;3.38;1.30;;;;;;;-145.63;54.60;39393.88;5042930;28;20213;-69
2023/10/17 13:39:33;;;;;;;2.58;1.40;;;;;;;-145.63;54.25;39403.66;5043263;28;20045;-69
2023/10/17 13:42:02;;;;;;;1.67;1.30;;;;;;;-145.63;54.46;39395.84;5043360;28;20340;-68
2023/10/17 13:44:28;;;;;;;2.00;1.50;;;;;;;-145.63;54.33;39407.56;5042310;28;20029;-68
2023/10/17 13:46:55;;;;;;;1.63;1.10;;;;;;;-145.63;54.15;39366.50;5041800;28;20473;-68